Time;durP1;ratioP1;P1;durP2;ratioP2;P2;SDS_P1;SDS_P2;PMS_P1;PMS_P2;Temp;Humidity;BMP_temperature;BMP_pressure;BME280_temperature;BME280_humidity;BME280_pressure;Samples;Min_cycle;Max_cycle;Signal;HPM_P1;HPM_P2
2022/06/09 00:01:34;;;;;;;0.10;0.10;;;16.50;99.90;;;;;;5027774;28;20198;-88
2022/06/09 00:04:20;;;;;;;0.10;0.10;;;16.60;99.90;;;;;;5045507;28;20648;-88
2022/06/09 00:06:51;;;;;;;0.10;0.10;;;16.50;99.90;;;;;;5048874;28;20809;-88
2022/06/09 00:09:20;;;;;;;0.10;0.10;;;16.40;99.90;;;;;;5050922;28;20492;-88
2022/06/09 00:11:48;;;;;;;0.10;0.10;;;16.40;99.90;;;;;;5051033;28;20929;-88
2022/06/09 00:14:14;;;;;;;0.10;0.10;;;16.40;99.90;;;;;;5050713;28;20529;-88
2022/06/09 00:16:39;;;;;;;0.10;0.10;;;16.30;99.90;;;;;;5034440;28;20805;-87
2022/06/09 00:19:05;;;;;;;0.10;0.10;;;16.30;99.90;;;;;;5031976;28;20488;-88
2022/06/09 00:21:32;;;;;;;0.10;0.10;;;16.40;99.90;;;;;;5041171;28;20191;-87
2022/06/09 00:23:58;;;;;;;0.10;0.10;;;16.30;99.90;;;;;;5048893;28;20555;-87
2022/06/09 00:26:24;;;;;;;0.10;0.10;;;16.20;99.90;;;;;;5050478;28;20437;-87
2022/06/09 00:28:49;;;;;;;0.10;0.10;;;16.20;99.90;;;;;;5051254;28;20222;-87
2022/06/09 00:31:15;;;;;;;0.10;0.10;;;16.20;99.90;;;;;;5032128;28;20612;-87
2022/06/09 00:33:40;;;;;;;0.10;0.10;;;16.20;99.90;;;;;;5022145;28;20229;-87
2022/06/09 00:36:06;;;;;;;0.10;0.10;;;16.10;99.90;;;;;;5050266;28;20174;-87
2022/06/09 00:38:31;;;;;;;0.10;0.10;;;16.10;99.90;;;;;;5047701;28;20186;-87
2022/06/09 00:40:59;;;;;;;0.10;0.10;;;16.10;99.90;;;;;;5050442;28;20225;-87
2022/06/09 00:43:26;;;;;;;0.10;0.10;;;16.10;99.90;;;;;;5052552;28;20167;-87
2022/06/09 00:46:02;;;;;;;0.10;0.10;;;16.10;99.90;;;;;;5023836;28;20487;-88
2022/06/09 00:48:33;;;;;;;0.10;0.10;;;16.10;99.90;;;;;;5031449;28;20452;-87
2022/06/09 00:51:15;;;;;;;0.10;0.10;;;16.10;99.90;;;;;;5049937;28;20963;-86
2022/06/09 00:53:42;;;;;;;0.10;0.10;;;16.20;99.90;;;;;;5050470;28;21326;-87
2022/06/09 00:56:11;;;;;;;0.10;0.10;;;16.30;99.90;;;;;;5044605;28;20471;-87
2022/06/09 00:58:40;;;;;;;0.10;0.10;;;16.30;99.90;;;;;;5031681;28;20463;-87
2022/06/09 01:01:08;;;;;;;0.10;0.10;;;16.10;99.90;;;;;;5032584;28;20556;-87
2022/06/09 01:03:45;;;;;;;0.10;0.10;;;16.10;99.90;;;;;;5037546;28;20570;-87
2022/06/09 01:06:15;;;;;;;0.10;0.10;;;16.00;99.90;;;;;;5049258;28;20590;-87
2022/06/09 01:08:50;;;;;;;0.10;0.10;;;16.00;99.90;;;;;;5021161;28;20445;-87
2022/06/09 01:11:15;;;;;;;0.10;0.10;;;16.10;99.90;;;;;;5049339;28;20957;-87
2022/06/09 01:13:42;;;;;;;0.10;0.10;;;16.00;99.90;;;;;;5048920;28;20491;-85
2022/06/09 01:16:07;;;;;;;0.10;0.10;;;15.90;99.90;;;;;;5047493;28;20183;-88
2022/06/09 01:18:48;;;;;;;0.10;0.10;;;15.90;99.90;;;;;;5049548;28;20447;-87
2022/06/09 01:21:40;;;;;;;0.10;0.10;;;15.90;99.90;;;;;;5050756;28;20717;-87
2022/06/09 01:24:58;;;;;;;0.10;0.10;;;15.80;99.90;;;;;;5048999;28;20944;-87
2022/06/09 01:27:43;;;;;;;0.10;0.10;;;15.80;99.90;;;;;;5040696;28;20591;-87
2022/06/09 01:30:19;;;;;;;0.10;0.10;;;15.90;99.90;;;;;;5034474;28;20566;-87
2022/06/09 01:33:14;;;;;;;0.10;0.10;;;16.00;99.90;;;;;;5031097;28;20516;-87
2022/06/09 01:35:51;;;;;;;0.10;0.10;;;16.00;99.90;;;;;;5029805;28;20541;-88
2022/06/09 01:38:17;;;;;;;0.10;0.10;;;16.10;99.90;;;;;;5031841;28;20803;-88
2022/06/09 01:40:42;;;;;;;0.00;0.00;;;15.80;99.90;;;;;;5033610;28;20527;-87
2022/06/09 01:43:08;;;;;;;0.10;0.10;;;15.90;99.90;;;;;;5049163;28;20521;-87
2022/06/09 01:46:14;;;;;;;0.10;0.10;;;16.00;99.90;;;;;;5048760;28;20646;-88
2022/06/09 01:48:40;;;;;;;0.10;0.10;;;16.00;99.90;;;;;;5022042;28;20946;-87
2022/06/09 01:51:16;;;;;;;0.10;0.10;;;16.00;99.90;;;;;;5049318;28;20532;-87
2022/06/09 01:53:47;;;;;;;0.10;0.10;;;16.00;99.90;;;;;;5030581;28;20845;-88
2022/06/09 01:56:19;;;;;;;0.10;0.10;;;16.00;99.90;;;;;;5050559;28;20444;-87
2022/06/09 01:58:53;;;;;;;0.10;0.10;;;16.00;99.90;;;;;;5044609;28;20488;-88
2022/06/09 02:01:26;;;;;;;0.00;0.00;;;16.10;99.90;;;;;;5013610;28;20797;-87
2022/06/09 02:03:56;;;;;;;0.10;0.10;;;16.00;99.90;;;;;;5029468;28;20450;-88
2022/06/09 02:06:22;;;;;;;0.10;0.10;;;16.00;99.90;;;;;;5051113;28;20440;-87
2022/06/09 02:08:48;;;;;;;0.10;0.10;;;16.00;99.90;;;;;;5048000;28;20449;-88
2022/06/09 02:11:14;;;;;;;0.10;0.10;;;16.00;99.90;;;;;;5048426;28;20453;-88
2022/06/09 02:13:47;;;;;;;0.10;0.10;;;15.90;99.90;;;;;;5046977;28;20749;-88
2022/06/09 02:16:17;;;;;;;0.10;0.10;;;15.90;99.90;;;;;;5050335;28;20647;-89
2022/06/09 02:18:47;;;;;;;0.10;0.10;;;15.90;99.90;;;;;;5037700;28;20472;-89
2022/06/09 02:21:15;;;;;;;0.10;0.10;;;15.90;99.90;;;;;;5046205;28;20494;-88
2022/06/09 02:23:41;;;;;;;0.10;0.10;;;15.90;99.90;;;;;;5048146;28;21281;-89
2022/06/09 02:26:07;;;;;;;0.10;0.10;;;15.90;99.90;;;;;;5045602;28;21022;-88
2022/06/09 02:28:33;;;;;;;0.10;0.10;;;15.90;99.90;;;;;;5047392;28;20453;-88
2022/06/09 02:30:59;;;;;;;0.10;0.10;;;15.90;99.90;;;;;;5040758;28;20207;-88
2022/06/09 02:33:25;;;;;;;0.10;0.10;;;15.90;99.90;;;;;;5043997;28;20815;-89
2022/06/09 02:35:51;;;;;;;0.10;0.10;;;15.90;99.90;;;;;;5044129;28;20561;-88
2022/06/09 02:38:19;;;;;;;0.10;0.10;;;15.90;99.90;;;;;;5049313;28;20190;-89
2022/06/09 02:40:45;;;;;;;0.10;0.10;;;15.80;99.90;;;;;;5038201;28;20472;-89
2022/06/09 02:43:13;;;;;;;0.10;0.10;;;15.80;99.90;;;;;;5030869;28;20455;-87
2022/06/09 02:45:38;;;;;;;0.10;0.10;;;15.80;99.90;;;;;;5047844;28;20481;-90
2022/06/09 02:48:04;;;;;;;0.10;0.10;;;15.80;99.90;;;;;;5049683;28;20477;-89
2022/06/09 02:50:31;;;;;;;0.10;0.10;;;15.70;99.90;;;;;;5027243;28;20186;-89
2022/06/09 02:52:58;;;;;;;0.10;0.10;;;15.70;99.90;;;;;;5048173;28;20665;-88
2022/06/09 02:55:23;;;;;;;0.10;0.10;;;15.70;99.90;;;;;;5045730;28;20471;-87
2022/06/09 02:57:49;;;;;;;0.10;0.10;;;15.70;99.90;;;;;;5031637;28;20445;-89
2022/06/09 03:00:15;;;;;;;0.10;0.10;;;15.70;99.90;;;;;;5028063;28;20205;-87
2022/06/09 03:02:43;;;;;;;0.10;0.10;;;15.70;99.90;;;;;;5047807;28;20196;-88
2022/06/09 03:05:09;;;;;;;0.10;0.10;;;15.70;99.90;;;;;;5029382;28;20449;-90
2022/06/09 03:07:34;;;;;;;0.10;0.10;;;15.70;99.90;;;;;;5048486;28;20477;-88
2022/06/09 03:10:00;;;;;;;0.10;0.10;;;15.60;99.90;;;;;;5030418;28;20923;-88
2022/06/09 03:12:25;;;;;;;0.10;0.10;;;15.60;99.90;;;;;;5049458;28;20190;-89
2022/06/09 03:14:51;;;;;;;0.10;0.10;;;15.60;99.90;;;;;;5047955;28;20223;-88
2022/06/09 03:17:16;;;;;;;0.10;0.10;;;15.70;99.90;;;;;;5048331;28;20214;-88
2022/06/09 03:19:42;;;;;;;0.10;0.10;;;15.60;99.90;;;;;;5047769;28;20198;-88
2022/06/09 03:22:08;;;;;;;0.10;0.10;;;15.70;99.90;;;;;;5047819;28;20182;-88
2022/06/09 03:24:33;;;;;;;0.00;0.00;;;15.60;99.90;;;;;;5043410;28;20202;-88
2022/06/09 03:26:59;;;;;;;0.10;0.10;;;15.60;99.90;;;;;;5048907;28;20624;-88
2022/06/09 03:29:24;;;;;;;0.10;0.10;;;15.70;99.90;;;;;;5048561;28;20194;-88
2022/06/09 03:31:50;;;;;;;0.10;0.10;;;15.60;99.90;;;;;;5049937;28;20268;-88
2022/06/09 03:34:18;;;;;;;0.10;0.10;;;15.60;99.90;;;;;;5029910;28;20597;-88
2022/06/09 03:36:44;;;;;;;0.10;0.10;;;15.60;99.90;;;;;;5052839;28;20464;-88
2022/06/09 03:39:11;;;;;;;0.57;0.57;;;15.60;99.90;;;;;;5046222;28;20502;-89
2022/06/09 03:41:36;;;;;;;0.10;0.10;;;15.60;99.90;;;;;;5048784;28;20822;-88
2022/06/09 03:44:03;;;;;;;0.10;0.10;;;15.60;99.90;;;;;;5052689;28;20445;-88
2022/06/09 03:46:28;;;;;;;0.10;0.10;;;15.50;99.90;;;;;;5052135;28;20179;-88
2022/06/09 03:48:54;;;;;;;0.10;0.10;;;15.50;99.90;;;;;;5050645;28;20951;-88
2022/06/09 03:51:19;;;;;;;0.10;0.10;;;15.50;99.90;;;;;;5050815;28;20195;-88
2022/06/09 03:53:45;;;;;;;0.10;0.10;;;15.50;99.90;;;;;;5051645;28;20214;-88
2022/06/09 03:56:18;;;;;;;0.10;0.10;;;15.60;99.90;;;;;;5030390;28;20231;-88
2022/06/09 03:58:44;;;;;;;0.10;0.10;;;15.60;99.90;;;;;;5043654;28;20198;-89
2022/06/09 04:01:13;;;;;;;0.10;0.10;;;15.60;99.90;;;;;;5049880;28;20575;-89
2022/06/09 04:03:40;;;;;;;0.10;0.10;;;15.50;99.90;;;;;;5053201;28;20454;-90
2022/06/09 04:06:11;;;;;;;0.10;0.10;;;15.50;99.90;;;;;;5049928;28;20444;-90
2022/06/09 04:08:37;;;;;;;0.10;0.10;;;15.50;99.90;;;;;;5043114;28;20571;-89
2022/06/09 04:11:02;;;;;;;0.10;0.10;;;15.50;99.90;;;;;;5049735;28;20551;-88
2022/06/09 04:13:28;;;;;;;0.10;0.10;;;15.50;99.90;;;;;;5042101;28;20588;-88
2022/06/09 04:15:54;;;;;;;0.10;0.10;;;15.50;99.90;;;;;;5044851;28;20187;-87
2022/06/09 04:18:19;;;;;;;0.10;0.10;;;15.50;99.90;;;;;;5048394;28;20178;-88
2022/06/09 04:20:44;;;;;;;0.10;0.10;;;15.50;99.90;;;;;;5044619;28;20281;-87
2022/06/09 04:23:10;;;;;;;0.10;0.10;;;15.50;99.90;;;;;;5050253;28;20183;-87
2022/06/09 04:25:35;;;;;;;0.10;0.10;;;15.40;99.90;;;;;;5051960;28;20287;-87
2022/06/09 04:28:01;;;;;;;0.10;0.10;;;15.40;99.90;;;;;;5024434;28;20190;-87
2022/06/09 04:30:27;;;;;;;0.10;0.10;;;15.40;99.90;;;;;;5033382;28;20187;-89
2022/06/09 04:32:54;;;;;;;0.10;0.10;;;15.30;99.90;;;;;;5051670;28;20460;-89
2022/06/09 04:35:19;;;;;;;0.10;0.10;;;15.30;99.90;;;;;;5053462;28;20193;-91
2022/06/09 04:38:00;;;;;;;0.10;0.10;;;15.30;99.90;;;;;;5049704;28;20425;-91
2022/06/09 04:40:32;;;;;;;0.10;0.10;;;15.20;99.90;;;;;;5050340;28;20187;-90
2022/06/09 04:42:58;;;;;;;0.10;0.10;;;15.30;99.90;;;;;;5027117;28;20457;-92
2022/06/09 04:45:23;;;;;;;0.10;0.10;;;15.20;99.90;;;;;;5047813;28;20453;-91
2022/06/09 04:47:49;;;;;;;0.10;0.10;;;15.20;99.90;;;;;;5050535;28;20182;-90
2022/06/09 04:50:16;;;;;;;0.10;0.10;;;15.20;99.90;;;;;;5046925;28;20642;-93
2022/06/09 04:52:42;;;;;;;0.10;0.10;;;15.20;99.90;;;;;;5033209;28;20287;-92
2022/06/09 04:55:08;;;;;;;0.10;0.10;;;15.20;99.90;;;;;;5049385;28;20488;-91
2022/06/09 04:57:33;;;;;;;0.10;0.10;;;15.20;99.90;;;;;;5047399;28;20287;-90
2022/06/09 05:00:00;;;;;;;0.10;0.10;;;15.20;99.90;;;;;;5046791;28;20514;-90
2022/06/09 05:02:26;;;;;;;0.10;0.10;;;15.20;99.90;;;;;;5045560;28;20171;-90
2022/06/09 05:04:51;;;;;;;0.10;0.10;;;15.20;99.90;;;;;;5031819;28;21000;-89
2022/06/09 05:07:17;;;;;;;0.10;0.10;;;15.20;99.90;;;;;;5039913;28;20197;-89
2022/06/09 05:09:43;;;;;;;0.10;0.10;;;15.30;99.90;;;;;;5047661;28;20249;-88
2022/06/09 05:12:08;;;;;;;0.10;0.10;;;15.40;99.90;;;;;;5040509;28;20691;-89
2022/06/09 05:14:34;;;;;;;0.10;0.10;;;15.50;99.90;;;;;;5051719;28;20225;-88
2022/06/09 05:16:59;;;;;;;0.10;0.10;;;15.50;99.90;;;;;;5038213;28;20186;-89
2022/06/09 05:19:25;;;;;;;0.10;0.10;;;15.50;99.90;;;;;;5052505;28;20248;-90
2022/06/09 05:21:50;;;;;;;0.10;0.10;;;15.60;99.90;;;;;;5052078;28;20450;-90
2022/06/09 05:24:16;;;;;;;0.10;0.10;;;15.50;99.90;;;;;;5052495;28;20467;-89
2022/06/09 05:26:41;;;;;;;0.10;0.10;;;15.50;99.90;;;;;;5048619;28;20190;-90
2022/06/09 05:29:07;;;;;;;0.10;0.10;;;15.60;99.90;;;;;;5040643;28;20201;-90
2022/06/09 05:31:33;;;;;;;0.10;0.10;;;15.60;99.90;;;;;;5035658;28;20186;-93
2022/06/09 05:33:59;;;;;;;0.10;0.10;;;15.70;99.90;;;;;;5030934;28;20461;-93
2022/06/09 05:36:24;;;;;;;0.10;0.10;;;15.70;99.90;;;;;;5045655;28;20190;-92
2022/06/09 05:47:02;;;;;;;0.10;0.10;;;16.20;99.90;;;;;;5054198;28;20518;-91
2022/06/09 05:49:30;;;;;;;0.00;0.00;;;16.30;99.90;;;;;;5054954;28;20461;-91
2022/06/09 05:51:56;;;;;;;0.00;0.00;;;16.40;99.90;;;;;;5046692;28;20266;-91
2022/06/09 05:54:21;;;;;;;0.00;0.00;;;16.50;99.90;;;;;;5033328;28;20638;-90
2022/06/09 05:56:47;;;;;;;0.10;0.10;;;16.50;99.90;;;;;;5054362;28;20656;-91
2022/06/09 05:59:13;;;;;;;0.00;0.00;;;16.40;99.90;;;;;;5049341;28;20195;-90
2022/06/09 06:01:39;;;;;;;0.00;0.00;;;16.40;99.90;;;;;;5030223;28;20186;-89
2022/06/09 06:04:07;;;;;;;0.10;0.10;;;16.30;99.90;;;;;;5053916;28;20202;-89
2022/06/09 06:06:33;;;;;;;0.10;0.10;;;16.20;99.90;;;;;;5046808;28;20945;-88
2022/06/09 06:08:59;;;;;;;0.10;0.10;;;16.20;99.90;;;;;;5055391;28;20593;-87
2022/06/09 06:11:25;;;;;;;0.10;0.10;;;16.30;99.90;;;;;;5049954;28;20448;-87
2022/06/09 06:13:51;;;;;;;0.00;0.00;;;16.30;99.90;;;;;;5031251;28;20542;-87
2022/06/09 06:16:17;;;;;;;0.10;0.10;;;16.40;99.90;;;;;;5047487;28;20184;-88
2022/06/09 06:18:42;;;;;;;0.10;0.10;;;16.40;99.90;;;;;;5048668;28;20252;-87
2022/06/09 06:21:08;;;;;;;0.07;0.07;;;16.40;99.90;;;;;;5046274;28;20445;-87
2022/06/09 06:23:34;;;;;;;0.10;0.10;;;16.40;99.90;;;;;;5039620;28;20194;-87
2022/06/09 06:25:59;;;;;;;0.10;0.10;;;16.40;99.90;;;;;;5043930;28;20191;-87
2022/06/09 06:28:26;;;;;;;0.07;0.07;;;16.40;99.90;;;;;;5057035;28;20193;-87
2022/06/09 06:30:53;;;;;;;0.10;0.10;;;16.40;99.90;;;;;;5061393;28;20202;-86
2022/06/09 06:33:19;;;;;;;0.07;0.07;;;16.40;99.90;;;;;;5031667;28;20566;-86
2022/06/09 06:35:45;;;;;;;0.10;0.10;;;16.50;99.90;;;;;;5045889;28;20975;-92
2022/06/09 06:38:11;;;;;;;0.00;0.00;;;16.30;99.90;;;;;;5047898;28;20995;-89
2022/06/09 06:40:37;;;;;;;0.10;0.10;;;16.20;99.90;;;;;;5049082;28;21010;-87
2022/06/09 06:43:03;;;;;;;0.10;0.10;;;16.10;99.90;;;;;;5030625;28;20436;-90
2022/06/09 06:45:29;;;;;;;0.00;0.00;;;16.20;99.90;;;;;;5050021;28;20273;-89
2022/06/09 06:47:56;;;;;;;0.10;0.10;;;16.30;99.90;;;;;;5041408;28;20214;-89
2022/06/09 06:50:21;;;;;;;0.00;0.00;;;16.30;99.90;;;;;;5027055;28;20271;-90
2022/06/09 06:52:47;;;;;;;0.10;0.10;;;16.40;99.90;;;;;;5048921;28;20516;-89
2022/06/09 06:55:16;;;;;;;0.10;0.10;;;16.30;99.90;;;;;;5041942;28;20194;-88
2022/06/09 06:57:41;;;;;;;0.10;0.10;;;16.20;99.90;;;;;;5028770;28;20455;-87
2022/06/09 07:00:09;;;;;;;0.10;0.10;;;16.10;99.90;;;;;;5029647;28;20441;-88
2022/06/09 07:02:35;;;;;;;0.10;0.10;;;16.00;99.90;;;;;;5028873;28;20552;-91
2022/06/09 07:05:01;;;;;;;0.00;0.00;;;16.00;99.90;;;;;;5022238;28;20445;-88
2022/06/09 07:07:26;;;;;;;0.00;0.00;;;16.00;99.90;;;;;;5046790;28;20193;-88
2022/06/09 07:09:52;;;;;;;0.10;0.10;;;16.10;99.90;;;;;;5048916;28;20698;-89
2022/06/09 07:12:18;;;;;;;0.00;0.00;;;16.10;99.90;;;;;;5043676;28;20191;-88
2022/06/09 07:14:43;;;;;;;0.00;0.00;;;16.30;99.90;;;;;;5047223;28;20233;-90
2022/06/09 07:17:09;;;;;;;0.10;0.10;;;16.60;99.90;;;;;;5042444;28;20428;-89
2022/06/09 07:19:35;;;;;;;0.10;0.10;;;16.90;99.90;;;;;;5049673;28;20191;-91
2022/06/09 07:22:02;;;;;;;0.00;0.00;;;17.40;99.90;;;;;;5044753;28;20182;-90
2022/06/09 08:33:22;;;;;;;0.10;0.10;;;17.80;99.90;;;;;;5083995;27;20580;-94
2022/06/09 08:35:48;;;;;;;0.10;0.10;;;17.30;99.90;;;;;;5078200;28;21092;-96
2022/06/09 08:38:14;;;;;;;0.10;0.10;;;16.90;99.90;;;;;;5080381;28;20519;-96
2022/06/09 08:41:13;;;;;;;0.00;0.00;;;16.80;99.90;;;;;;5082943;23;20546;-96
2022/06/09 08:43:54;;;;;;;0.10;0.10;;;16.60;99.90;;;;;;5059857;28;20199;-96
2022/06/09 08:46:53;;;;;;;0.00;0.00;;;16.50;99.90;;;;;;5061990;28;20835;-96
2022/06/09 08:49:49;;;;;;;0.00;0.00;;;16.40;99.90;;;;;;5067494;28;20451;-94
2022/06/09 08:52:41;;;;;;;0.00;0.00;;;16.50;99.90;;;;;;5064911;28;20472;-95
2022/06/09 08:55:28;;;;;;;0.00;0.00;;;16.50;99.90;;;;;;5066997;28;20463;-96
2022/06/09 08:58:00;;;;;;;0.00;0.00;;;16.30;99.90;;;;;;5068908;28;20432;-95
2022/06/09 09:00:33;;;;;;;0.10;0.10;;;16.30;99.90;;;;;;5068351;28;20443;-95
2022/06/09 09:03:04;;;;;;;0.00;0.00;;;16.40;99.90;;;;;;5064481;28;20509;-96
2022/06/09 09:05:44;;;;;;;0.00;0.00;;;16.40;99.90;;;;;;5068093;28;20433;-96
2022/06/09 09:08:11;;;;;;;0.00;0.00;;;16.40;99.90;;;;;;5081986;28;20553;-96
2022/06/09 09:10:59;;;;;;;0.00;0.00;;;16.40;99.90;;;;;;5063684;28;20928;-93
2022/06/09 09:13:42;;;;;;;0.00;0.00;;;16.50;99.90;;;;;;5066362;28;20496;-96
2022/06/09 09:16:37;;;;;;;0.00;0.00;;;16.60;99.90;;;;;;5059717;28;20440;-94
2022/06/09 09:19:22;;;;;;;0.00;0.00;;;16.70;99.90;;;;;;5044330;28;20781;-95
2022/06/09 09:22:00;;;;;;;0.10;0.10;;;16.60;99.90;;;;;;5067247;28;20440;-95
2022/06/09 09:24:52;;;;;;;0.10;0.10;;;16.50;99.90;;;;;;5071170;28;20420;-96
2022/06/09 09:27:24;;;;;;;0.10;0.10;;;16.60;99.90;;;;;;5047041;28;20449;-96
2022/06/09 09:30:19;;;;;;;0.10;0.10;;;16.60;99.90;;;;;;5060461;28;20944;-95
2022/06/09 09:32:54;;;;;;;0.10;0.10;;;16.80;99.90;;;;;;5066070;28;20495;-93
2022/06/09 09:35:33;;;;;;;0.00;0.00;;;17.00;99.90;;;;;;5052212;28;20773;-95
2022/06/09 09:38:00;;;;;;;0.00;0.00;;;17.20;99.90;;;;;;5064849;28;20436;-95
2022/06/09 09:40:31;;;;;;;0.07;0.07;;;17.50;99.90;;;;;;5068072;28;20566;-95
2022/06/09 09:43:14;;;;;;;0.00;0.00;;;17.60;99.90;;;;;;5049438;28;20434;-96
2022/06/09 09:45:44;;;;;;;0.00;0.00;;;17.50;99.90;;;;;;5054486;28;20441;-96
2022/06/09 09:48:16;;;;;;;0.00;0.00;;;17.70;99.90;;;;;;5067130;28;20453;-96
2022/06/09 09:50:59;;;;;;;0.10;0.10;;;17.70;99.90;;;;;;5251609;23;21242;-96
2022/06/09 09:53:32;;;;;;;0.10;0.10;;;17.60;99.90;;;;;;5122366;22;20489;-96
2022/06/09 09:56:02;;;;;;;0.10;0.10;;;17.90;99.90;;;;;;5032696;28;20653;-96
2022/06/09 09:58:58;;;;;;;0.10;0.10;;;18.30;99.90;;;;;;5071564;23;20484;-96
2022/06/09 10:01:24;;;;;;;0.10;0.10;;;18.80;99.90;;;;;;5046398;28;20516;-96
2022/06/09 10:09:27;;;;;;;0.30;0.30;;;20.20;99.90;;;;;;5035911;28;20441;-96
2022/06/09 10:11:56;;;;;;;0.23;0.23;;;20.60;99.90;;;;;;5045034;28;20466;-96
2022/06/09 10:14:59;;;;;;;0.00;0.00;;;21.30;99.90;;;;;;5027423;28;20442;-87
2022/06/09 10:17:36;;;;;;;0.30;0.30;;;21.20;99.90;;;;;;5041280;28;20801;-89
2022/06/09 10:20:13;;;;;;;0.30;0.30;;;21.00;99.90;;;;;;5025598;28;20482;-94
2022/06/09 10:22:53;;;;;;;0.10;0.10;;;20.50;99.90;;;;;;5027346;28;20586;-92
2022/06/09 10:25:21;;;;;;;0.00;0.00;;;20.20;99.90;;;;;;5017627;28;20454;-94
2022/06/09 10:27:52;;;;;;;0.00;0.00;;;19.60;99.90;;;;;;5017876;28;20973;-95
2022/06/09 10:30:27;;;;;;;0.00;0.00;;;19.60;99.90;;;;;;5023262;28;21296;-92
2022/06/09 10:33:02;;;;;;;0.00;0.00;;;19.60;99.90;;;;;;5031669;28;20572;-94
2022/06/09 10:35:46;;;;;;;0.00;0.00;;;19.50;99.90;;;;;;5031380;28;20500;-91
2022/06/09 10:38:18;;;;;;;0.10;0.10;;;19.30;99.90;;;;;;5047770;28;20530;-90
2022/06/09 10:40:56;;;;;;;0.40;0.40;;;19.00;99.90;;;;;;5031377;28;20426;-93
2022/06/09 10:43:34;;;;;;;0.20;0.20;;;19.10;99.90;;;;;;5022786;28;21084;-90
2022/06/09 10:46:05;;;;;;;0.10;0.10;;;19.50;99.90;;;;;;5021585;28;21003;-92
2022/06/09 10:57:24;;;;;;;0.10;0.00;;;19.60;99.90;;;;;;5024883;28;20444;-92
2022/06/09 11:00:11;;;;;;;0.00;0.00;;;20.10;99.90;;;;;;5019976;28;20483;-91
2022/06/09 11:02:40;;;;;;;0.00;0.00;;;20.70;99.90;;;;;;5026942;28;20456;-91
2022/06/09 11:05:06;;;;;;;0.00;0.00;;;21.00;99.90;;;;;;5028983;28;20566;-90
2022/06/09 11:08:04;;;;;;;0.00;0.00;;;20.00;99.90;;;;;;5030297;28;20541;-92
2022/06/09 11:11:02;;;;;;;0.00;0.00;;;20.80;99.90;;;;;;5013410;28;22094;-92
2022/06/09 11:14:02;;;;;;;0.00;0.00;;;21.40;99.90;;;;;;5015227;28;20454;-91
2022/06/09 11:16:55;;;;;;;0.00;0.00;;;20.40;99.90;;;;;;5023829;28;20457;-91
2022/06/09 11:19:48;;;;;;;0.00;0.00;;;19.80;99.90;;;;;;5026523;28;20521;-91
2022/06/09 11:22:33;;;;;;;0.00;0.00;;;19.90;99.90;;;;;;5027051;28;20457;-91
2022/06/09 11:25:26;;;;;;;0.00;0.00;;;20.40;99.90;;;;;;5027337;28;20452;-93
2022/06/09 11:28:14;;;;;;;0.00;0.00;;;21.10;99.90;;;;;;5031820;28;20801;-91
2022/06/09 11:31:07;;;;;;;0.00;0.00;;;21.30;99.90;;;;;;5038215;28;20446;-92
2022/06/09 11:33:36;;;;;;;0.00;0.00;;;21.20;99.90;;;;;;5023008;28;20460;-92
2022/06/09 11:36:23;;;;;;;0.10;0.00;;;22.20;99.90;;;;;;5028617;28;20442;-92
2022/06/09 11:39:08;;;;;;;0.10;0.00;;;23.00;99.90;;;;;;5020312;28;21026;-90
2022/06/09 11:42:00;;;;;;;0.10;0.00;;;23.30;99.90;;;;;;5020825;28;20541;-90
2022/06/09 11:44:29;;;;;;;0.10;0.00;;;23.10;99.90;;;;;;5021760;28;20802;-91
2022/06/09 11:47:00;;;;;;;0.10;0.00;;;22.60;99.90;;;;;;5026925;28;20430;-93
2022/06/09 11:49:42;;;;;;;0.10;0.00;;;22.70;99.90;;;;;;5030301;28;20521;-91
2022/06/09 11:52:12;;;;;;;0.00;0.00;;;22.40;99.90;;;;;;5027666;28;20474;-92
2022/06/09 11:54:50;;;;;;;0.00;0.00;;;21.90;99.90;;;;;;5036175;28;20455;-92
2022/06/09 11:57:16;;;;;;;0.00;0.00;;;21.40;99.90;;;;;;5021795;28;20470;-94
2022/06/09 12:00:18;;;;;;;0.00;0.00;;;21.40;99.90;;;;;;5031222;28;20481;-93
2022/06/09 12:03:12;;;;;;;0.00;0.00;;;22.10;99.90;;;;;;5044528;28;20186;-94
2022/06/09 12:06:06;;;;;;;0.00;0.00;;;23.20;99.90;;;;;;5024408;28;20477;-93
2022/06/09 12:08:54;;;;;;;0.00;0.00;;;22.70;99.90;;;;;;5029355;28;20457;-92
2022/06/09 12:11:22;;;;;;;0.00;0.00;;;21.90;99.90;;;;;;5028834;28;20466;-91
2022/06/09 12:14:10;;;;;;;0.00;0.00;;;21.10;99.90;;;;;;5025662;28;21379;-91
2022/06/09 12:17:16;;;;;;;0.10;0.10;;;20.50;99.90;;;;;;5028373;28;20430;-92
2022/06/09 12:19:55;;;;;;;0.10;0.10;;;20.50;99.90;;;;;;5017529;28;20447;-96
2022/06/09 12:22:33;;;;;;;0.00;0.00;;;21.10;99.90;;;;;;5026274;28;20425;-96
2022/06/09 12:25:07;;;;;;;0.00;0.00;;;20.80;99.90;;;;;;5044305;28;20471;-96
2022/06/09 12:27:36;;;;;;;0.00;0.00;;;20.80;99.90;;;;;;5029592;28;20524;-95
2022/06/09 12:30:02;;;;;;;0.00;0.00;;;20.80;99.90;;;;;;5032198;28;20530;-95
2022/06/09 12:32:42;;;;;;;0.00;0.00;;;21.10;99.90;;;;;;5029818;28;20573;-95
2022/06/09 12:35:34;;;;;;;0.10;0.10;;;21.90;99.90;;;;;;5015588;28;20226;-96
2022/06/09 12:38:36;;;;;;;0.10;0.10;;;21.80;99.90;;;;;;5037871;28;20442;-96
2022/06/09 12:41:21;;;;;;;0.10;0.10;;;21.20;99.90;;;;;;5017591;28;20536;-91
2022/06/09 12:44:05;;;;;;;0.00;0.00;;;20.90;99.90;;;;;;5025855;28;20561;-96
2022/06/09 12:46:31;;;;;;;0.00;0.00;;;20.40;99.90;;;;;;5028719;28;20430;-96
2022/06/09 13:50:14;;;;;;;0.10;0.00;;;21.60;99.90;;;;;;5099151;27;21188;-95
2022/06/09 13:52:47;;;;;;;0.10;0.00;;;21.80;99.90;;;;;;5089335;28;20852;-96
2022/06/09 13:55:25;;;;;;;0.00;0.00;;;22.20;99.90;;;;;;5084994;28;20538;-96
2022/06/09 13:57:54;;;;;;;0.00;0.00;;;22.50;99.90;;;;;;5081447;28;20494;-96
2022/06/09 14:00:22;;;;;;;0.10;0.00;;;22.00;99.90;;;;;;5070587;28;20498;-96
2022/06/09 14:03:01;;;;;;;0.00;0.00;;;21.90;99.90;;;;;;5087691;28;20439;-96
2022/06/09 14:05:27;;;;;;;0.07;0.00;;;21.40;99.90;;;;;;5079143;28;20538;-92
2022/06/09 14:07:53;;;;;;;0.10;0.00;;;21.30;99.90;;;;;;5062867;28;20523;-93
2022/06/09 14:10:23;;;;;;;0.10;0.00;;;21.00;99.90;;;;;;5080024;28;21063;-91
2022/06/09 14:12:49;;;;;;;0.07;0.00;;;20.90;99.90;;;;;;5086943;28;20177;-94
2022/06/09 14:15:17;;;;;;;0.10;0.00;;;21.50;99.90;;;;;;5085456;28;20449;-93
2022/06/09 14:17:48;;;;;;;0.10;0.00;;;21.70;99.90;;;;;;5090784;28;20442;-95
2022/06/09 14:20:17;;;;;;;0.10;0.00;;;21.10;99.90;;;;;;5077375;28;20451;-96
2022/06/09 14:22:42;;;;;;;0.10;0.00;;;20.70;99.90;;;;;;5078320;28;20439;-94
2022/06/09 14:25:08;;;;;;;0.10;0.00;;;20.90;99.90;;;;;;5085443;28;20807;-95
2022/06/09 14:27:33;;;;;;;0.10;0.10;;;21.20;99.90;;;;;;5089175;28;20192;-95
2022/06/09 14:29:59;;;;;;;0.10;0.00;;;21.10;99.90;;;;;;5088969;28;20307;-96
2022/06/09 14:32:25;;;;;;;0.10;0.00;;;20.90;99.90;;;;;;5084243;28;20641;-95
2022/06/09 14:34:51;;;;;;;0.10;0.00;;;20.60;99.90;;;;;;5095702;28;20209;-96
2022/06/09 14:37:18;;;;;;;0.10;0.00;;;20.30;99.90;;;;;;5079099;28;20173;-96
2022/06/09 14:39:43;;;;;;;0.10;0.00;;;20.50;99.90;;;;;;5084082;28;20477;-95
2022/06/09 14:42:12;;;;;;;0.10;0.00;;;20.30;99.90;;;;;;5078090;28;20516;-95
2022/06/09 14:44:39;;;;;;;0.10;0.00;;;20.40;99.90;;;;;;5061995;28;20530;-96
2022/06/09 14:47:09;;;;;;;0.10;0.00;;;21.20;99.90;;;;;;5087425;28;20431;-96
2022/06/09 14:49:35;;;;;;;0.10;0.00;;;20.70;99.90;;;;;;5087176;28;20502;-95
2022/06/09 14:52:00;;;;;;;0.10;0.00;;;20.90;99.90;;;;;;5082402;28;20452;-94
2022/06/09 14:54:26;;;;;;;0.10;0.00;;;20.70;99.90;;;;;;5080602;28;20186;-95
2022/06/09 14:56:51;;;;;;;0.10;0.00;;;20.40;99.90;;;;;;5083249;28;20254;-95
2022/06/09 14:59:17;;;;;;;0.10;0.00;;;20.50;99.90;;;;;;5080928;28;20182;-93
2022/06/09 15:01:43;;;;;;;0.10;0.00;;;20.50;99.90;;;;;;5072444;28;20606;-93
2022/06/09 15:04:09;;;;;;;0.10;0.00;;;20.30;99.90;;;;;;5071881;28;20198;-94
2022/06/09 15:06:35;;;;;;;0.10;0.00;;;20.50;99.90;;;;;;5056558;28;20182;-96
2022/06/09 15:09:02;;;;;;;0.10;0.00;;;20.70;99.90;;;;;;5057821;28;20215;-95
2022/06/09 15:11:28;;;;;;;0.10;0.10;;;20.10;99.90;;;;;;5070344;28;20475;-95
2022/06/09 15:13:54;;;;;;;0.10;0.00;;;20.10;99.90;;;;;;5073641;28;20493;-94
2022/06/09 15:16:20;;;;;;;0.10;0.00;;;19.70;99.90;;;;;;5052608;28;20183;-95
2022/06/09 15:18:52;;;;;;;0.10;0.00;;;19.60;99.90;;;;;;5068161;28;20264;-95
2022/06/09 15:21:21;;;;;;;0.10;0.00;;;19.60;99.90;;;;;;5083655;28;20209;-95
2022/06/09 15:23:48;;;;;;;0.10;0.00;;;19.30;99.90;;;;;;5048287;28;20951;-93
2022/06/09 15:26:16;;;;;;;0.10;0.10;;;19.40;99.90;;;;;;5083540;28;20450;-94
2022/06/09 15:28:42;;;;;;;0.10;0.00;;;19.40;99.90;;;;;;5060863;28;20550;-94
2022/06/09 15:31:09;;;;;;;0.10;0.07;;;19.70;99.90;;;;;;5077474;28;20936;-95
2022/06/09 15:33:34;;;;;;;0.10;0.00;;;19.70;99.90;;;;;;5072537;28;20488;-93
2022/06/09 15:36:01;;;;;;;0.10;0.00;;;19.50;99.90;;;;;;5068979;28;20575;-95
2022/06/09 15:38:27;;;;;;;0.10;0.00;;;19.60;99.90;;;;;;5069012;28;20221;-94
2022/06/09 15:40:53;;;;;;;0.10;0.00;;;19.30;99.90;;;;;;5074390;28;20448;-95
2022/06/09 15:43:18;;;;;;;0.10;0.00;;;19.40;99.90;;;;;;5075557;28;20788;-96